sensor_id;sensor_type;location;lat;lon;timestamp;P1;durP1;ratioP1;P2;durP2;ratioP2
55330;SDS011;58851;42.984;20.336;2022-11-15T00:00:51;138.82;;;88.88;;
55330;SDS011;58851;42.984;20.336;2022-11-15T00:03:19;137.40;;;88.30;;
55330;SDS011;58851;42.984;20.336;2022-11-15T00:05:46;172.45;;;100.05;;
55330;SDS011;58851;42.984;20.336;2022-11-15T00:08:12;188.10;;;112.47;;
55330;SDS011;58851;42.984;20.336;2022-11-15T00:10:38;200.68;;;121.10;;
55330;SDS011;58851;42.984;20.336;2022-11-15T00:13:05;192.88;;;121.63;;
55330;SDS011;58851;42.984;20.336;2022-11-15T00:15:33;181.18;;;110.70;;
55330;SDS011;58851;42.984;20.336;2022-11-15T00:18:01;178.05;;;107.85;;
55330;SDS011;58851;42.984;20.336;2022-11-15T00:20:27;160.93;;;101.45;;
55330;SDS011;58851;42.984;20.336;2022-11-15T00:22:53;151.27;;;96.63;;
55330;SDS011;58851;42.984;20.336;2022-11-15T00:25:19;149.35;;;96.90;;
55330;SDS011;58851;42.984;20.336;2022-11-15T00:27:44;155.75;;;100.32;;
55330;SDS011;58851;42.984;20.336;2022-11-15T00:30:10;151.57;;;97.50;;
55330;SDS011;58851;42.984;20.336;2022-11-15T00:32:37;160.70;;;99.47;;
55330;SDS011;58851;42.984;20.336;2022-11-15T00:35:03;175.23;;;106.97;;
55330;SDS011;58851;42.984;20.336;2022-11-15T00:37:29;184.38;;;110.47;;
55330;SDS011;58851;42.984;20.336;2022-11-15T00:39:55;167.73;;;100.95;;
55330;SDS011;58851;42.984;20.336;2022-11-15T00:42:21;163.63;;;100.95;;
55330;SDS011;58851;42.984;20.336;2022-11-15T00:44:46;145.65;;;88.25;;
55330;SDS011;58851;42.984;20.336;2022-11-15T00:47:12;149.63;;;89.97;;
55330;SDS011;58851;42.984;20.336;2022-11-15T00:49:38;126.07;;;75.43;;
55330;SDS011;58851;42.984;20.336;2022-11-15T00:52:04;111.55;;;71.95;;
55330;SDS011;58851;42.984;20.336;2022-11-15T00:54:30;133.82;;;82.38;;
55330;SDS011;58851;42.984;20.336;2022-11-15T00:56:55;146.98;;;91.60;;
55330;SDS011;58851;42.984;20.336;2022-11-15T00:59:21;152.80;;;95.22;;
55330;SDS011;58851;42.984;20.336;2022-11-15T01:01:47;143.02;;;87.75;;
55330;SDS011;58851;42.984;20.336;2022-11-15T01:04:13;145.60;;;89.00;;
55330;SDS011;58851;42.984;20.336;2022-11-15T01:06:39;159.35;;;98.22;;
55330;SDS011;58851;42.984;20.336;2022-11-15T01:09:05;170.45;;;104.82;;
55330;SDS011;58851;42.984;20.336;2022-11-15T01:11:30;148.50;;;94.68;;
55330;SDS011;58851;42.984;20.336;2022-11-15T01:13:56;147.90;;;85.70;;
55330;SDS011;58851;42.984;20.336;2022-11-15T01:16:22;143.25;;;85.85;;
55330;SDS011;58851;42.984;20.336;2022-11-15T01:18:48;161.77;;;95.72;;
55330;SDS011;58851;42.984;20.336;2022-11-15T01:21:15;158.85;;;94.07;;
55330;SDS011;58851;42.984;20.336;2022-11-15T01:23:42;148.52;;;88.53;;
55330;SDS011;58851;42.984;20.336;2022-11-15T01:26:10;148.75;;;91.22;;
55330;SDS011;58851;42.984;20.336;2022-11-15T01:28:39;148.27;;;89.65;;
55330;SDS011;58851;42.984;20.336;2022-11-15T01:31:09;148.55;;;93.05;;
55330;SDS011;58851;42.984;20.336;2022-11-15T01:33:38;149.38;;;95.70;;
55330;SDS011;58851;42.984;20.336;2022-11-15T01:36:08;148.93;;;93.45;;
55330;SDS011;58851;42.984;20.336;2022-11-15T01:38:46;117.72;;;80.20;;
55330;SDS011;58851;42.984;20.336;2022-11-15T01:41:21;107.78;;;72.93;;
55330;SDS011;58851;42.984;20.336;2022-11-15T01:43:52;114.65;;;74.13;;
55330;SDS011;58851;42.984;20.336;2022-11-15T01:46:35;96.72;;;63.83;;
55330;SDS011;58851;42.984;20.336;2022-11-15T01:49:10;94.13;;;59.58;;
55330;SDS011;58851;42.984;20.336;2022-11-15T01:51:39;87.88;;;60.95;;
55330;SDS011;58851;42.984;20.336;2022-11-15T01:54:06;101.55;;;63.92;;
55330;SDS011;58851;42.984;20.336;2022-11-15T01:56:38;91.13;;;59.95;;
55330;SDS011;58851;42.984;20.336;2022-11-15T01:59:10;96.67;;;64.43;;
55330;SDS011;58851;42.984;20.336;2022-11-15T02:01:36;131.27;;;83.50;;
55330;SDS011;58851;42.984;20.336;2022-11-15T02:04:13;130.93;;;82.35;;
55330;SDS011;58851;42.984;20.336;2022-11-15T02:06:44;118.82;;;76.68;;
55330;SDS011;58851;42.984;20.336;2022-11-15T02:09:13;126.28;;;78.43;;
55330;SDS011;58851;42.984;20.336;2022-11-15T02:11:39;116.13;;;77.00;;
55330;SDS011;58851;42.984;20.336;2022-11-15T02:14:06;115.82;;;73.18;;
55330;SDS011;58851;42.984;20.336;2022-11-15T02:19:29;108.43;;;69.45;;
55330;SDS011;58851;42.984;20.336;2022-11-15T02:22:14;98.97;;;64.63;;
55330;SDS011;58851;42.984;20.336;2022-11-15T02:25:09;96.43;;;66.32;;
55330;SDS011;58851;42.984;20.336;2022-11-15T02:28:06;112.45;;;76.22;;
55330;SDS011;58851;42.984;20.336;2022-11-15T02:30:53;101.90;;;69.10;;
55330;SDS011;58851;42.984;20.336;2022-11-15T02:36:00;106.50;;;66.80;;
55330;SDS011;58851;42.984;20.336;2022-11-15T02:41:54;99.35;;;67.95;;
55330;SDS011;58851;42.984;20.336;2022-11-15T02:47:06;89.22;;;55.80;;
55330;SDS011;58851;42.984;20.336;2022-11-15T02:49:50;101.95;;;67.80;;
55330;SDS011;58851;42.984;20.336;2022-11-15T02:52:19;99.22;;;65.93;;
55330;SDS011;58851;42.984;20.336;2022-11-15T02:54:53;101.40;;;69.80;;
55330;SDS011;58851;42.984;20.336;2022-11-15T02:57:23;105.00;;;68.20;;
55330;SDS011;58851;42.984;20.336;2022-11-15T03:00:02;105.32;;;71.25;;
55330;SDS011;58851;42.984;20.336;2022-11-15T03:03:24;99.65;;;65.40;;
55330;SDS011;58851;42.984;20.336;2022-11-15T03:05:37;96.50;;;63.37;;
55330;SDS011;58851;42.984;20.336;2022-11-15T03:11:03;99.60;;;66.47;;
55330;SDS011;58851;42.984;20.336;2022-11-15T03:13:53;98.65;;;65.60;;
55330;SDS011;58851;42.984;20.336;2022-11-15T03:19:32;93.65;;;61.53;;
55330;SDS011;58851;42.984;20.336;2022-11-15T03:22:20;87.75;;;61.50;;
55330;SDS011;58851;42.984;20.336;2022-11-15T03:24:57;90.00;;;60.35;;
55330;SDS011;58851;42.984;20.336;2022-11-15T03:27:27;80.25;;;56.05;;
55330;SDS011;58851;42.984;20.336;2022-11-15T03:29:59;78.00;;;54.10;;
55330;SDS011;58851;42.984;20.336;2022-11-15T03:32:29;70.47;;;46.72;;
55330;SDS011;58851;42.984;20.336;2022-11-15T03:35:06;70.75;;;46.05;;
55330;SDS011;58851;42.984;20.336;2022-11-15T03:37:37;67.93;;;47.00;;
55330;SDS011;58851;42.984;20.336;2022-11-15T03:40:07;75.05;;;51.78;;
55330;SDS011;58851;42.984;20.336;2022-11-15T03:42:38;70.45;;;48.95;;
55330;SDS011;58851;42.984;20.336;2022-11-15T03:45:26;76.90;;;53.90;;
55330;SDS011;58851;42.984;20.336;2022-11-15T03:48:23;79.95;;;55.03;;
55330;SDS011;58851;42.984;20.336;2022-11-15T03:53:17;87.00;;;55.63;;
55330;SDS011;58851;42.984;20.336;2022-11-15T03:55:43;88.70;;;56.70;;
55330;SDS011;58851;42.984;20.336;2022-11-15T03:58:09;87.15;;;59.85;;
55330;SDS011;58851;42.984;20.336;2022-11-15T04:00:35;95.65;;;61.00;;
55330;SDS011;58851;42.984;20.336;2022-11-15T04:03:01;93.60;;;53.10;;
55330;SDS011;58851;42.984;20.336;2022-11-15T04:05:26;78.07;;;50.92;;
55330;SDS011;58851;42.984;20.336;2022-11-15T04:07:52;94.20;;;54.47;;
55330;SDS011;58851;42.984;20.336;2022-11-15T04:10:18;106.97;;;63.08;;
55330;SDS011;58851;42.984;20.336;2022-11-15T04:12:45;126.22;;;74.82;;
55330;SDS011;58851;42.984;20.336;2022-11-15T04:15:19;124.03;;;75.75;;
55330;SDS011;58851;42.984;20.336;2022-11-15T04:17:48;115.15;;;68.65;;
55330;SDS011;58851;42.984;20.336;2022-11-15T04:20:16;116.07;;;68.47;;
55330;SDS011;58851;42.984;20.336;2022-11-15T04:23:03;100.47;;;59.92;;
55330;SDS011;58851;42.984;20.336;2022-11-15T04:25:50;92.32;;;55.80;;
55330;SDS011;58851;42.984;20.336;2022-11-15T04:28:18;77.43;;;46.88;;
55330;SDS011;58851;42.984;20.336;2022-11-15T04:30:44;70.15;;;44.58;;
55330;SDS011;58851;42.984;20.336;2022-11-15T04:33:10;72.22;;;46.35;;
55330;SDS011;58851;42.984;20.336;2022-11-15T04:35:35;65.25;;;42.50;;
55330;SDS011;58851;42.984;20.336;2022-11-15T04:38:02;66.63;;;40.60;;
55330;SDS011;58851;42.984;20.336;2022-11-15T04:40:29;72.30;;;43.10;;
55330;SDS011;58851;42.984;20.336;2022-11-15T04:42:55;70.95;;;47.15;;
55330;SDS011;58851;42.984;20.336;2022-11-15T04:45:21;79.75;;;48.35;;
55330;SDS011;58851;42.984;20.336;2022-11-15T04:47:46;79.07;;;49.17;;
55330;SDS011;58851;42.984;20.336;2022-11-15T04:50:14;75.28;;;45.63;;
55330;SDS011;58851;42.984;20.336;2022-11-15T04:52:41;79.78;;;46.88;;
55330;SDS011;58851;42.984;20.336;2022-11-15T04:55:09;75.32;;;44.70;;
55330;SDS011;58851;42.984;20.336;2022-11-15T04:57:35;78.70;;;49.38;;
55330;SDS011;58851;42.984;20.336;2022-11-15T05:00:06;71.90;;;47.00;;
55330;SDS011;58851;42.984;20.336;2022-11-15T05:02:38;87.22;;;53.22;;
55330;SDS011;58851;42.984;20.336;2022-11-15T05:05:22;135.13;;;84.60;;
55330;SDS011;58851;42.984;20.336;2022-11-15T05:07:49;125.20;;;82.85;;
55330;SDS011;58851;42.984;20.336;2022-11-15T05:10:15;92.70;;;59.80;;
55330;SDS011;58851;42.984;20.336;2022-11-15T05:12:41;87.35;;;55.10;;
55330;SDS011;58851;42.984;20.336;2022-11-15T05:15:07;82.22;;;54.17;;
55330;SDS011;58851;42.984;20.336;2022-11-15T05:17:33;75.07;;;51.65;;
55330;SDS011;58851;42.984;20.336;2022-11-15T05:19:59;83.85;;;53.30;;
55330;SDS011;58851;42.984;20.336;2022-11-15T05:22:26;68.45;;;45.83;;
55330;SDS011;58851;42.984;20.336;2022-11-15T05:24:52;74.00;;;50.70;;
55330;SDS011;58851;42.984;20.336;2022-11-15T05:27:18;67.95;;;43.95;;
55330;SDS011;58851;42.984;20.336;2022-11-15T05:29:44;71.80;;;45.97;;
55330;SDS011;58851;42.984;20.336;2022-11-15T05:32:10;69.28;;;45.08;;
55330;SDS011;58851;42.984;20.336;2022-11-15T05:34:37;60.88;;;41.75;;
55330;SDS011;58851;42.984;20.336;2022-11-15T05:37:03;65.90;;;46.13;;
55330;SDS011;58851;42.984;20.336;2022-11-15T05:39:29;64.72;;;45.95;;
55330;SDS011;58851;42.984;20.336;2022-11-15T05:41:57;61.55;;;43.13;;
55330;SDS011;58851;42.984;20.336;2022-11-15T05:44:31;65.97;;;44.38;;
55330;SDS011;58851;42.984;20.336;2022-11-15T05:46:57;74.30;;;48.20;;
55330;SDS011;58851;42.984;20.336;2022-11-15T05:49:24;84.60;;;55.70;;
55330;SDS011;58851;42.984;20.336;2022-11-15T05:51:55;71.82;;;49.17;;
55330;SDS011;58851;42.984;20.336;2022-11-15T05:54:22;74.50;;;49.88;;
55330;SDS011;58851;42.984;20.336;2022-11-15T05:56:50;83.82;;;57.38;;
55330;SDS011;58851;42.984;20.336;2022-11-15T05:59:16;76.80;;;52.95;;
55330;SDS011;58851;42.984;20.336;2022-11-15T06:01:42;88.68;;;57.17;;
55330;SDS011;58851;42.984;20.336;2022-11-15T06:04:08;80.32;;;57.35;;
55330;SDS011;58851;42.984;20.336;2022-11-15T06:06:34;86.10;;;58.22;;
55330;SDS011;58851;42.984;20.336;2022-11-15T06:09:00;99.65;;;63.35;;
55330;SDS011;58851;42.984;20.336;2022-11-15T06:11:26;86.80;;;59.63;;
55330;SDS011;58851;42.984;20.336;2022-11-15T06:13:51;84.00;;;59.95;;
55330;SDS011;58851;42.984;20.336;2022-11-15T06:16:17;85.80;;;57.42;;
55330;SDS011;58851;42.984;20.336;2022-11-15T06:18:43;84.63;;;57.88;;
55330;SDS011;58851;42.984;20.336;2022-11-15T06:21:09;87.65;;;61.10;;
55330;SDS011;58851;42.984;20.336;2022-11-15T06:23:35;87.05;;;61.22;;
55330;SDS011;58851;42.984;20.336;2022-11-15T06:26:01;92.47;;;59.35;;
55330;SDS011;58851;42.984;20.336;2022-11-15T06:28:28;79.63;;;56.40;;
55330;SDS011;58851;42.984;20.336;2022-11-15T06:30:55;75.28;;;53.72;;
55330;SDS011;58851;42.984;20.336;2022-11-15T06:33:22;77.18;;;54.25;;
55330;SDS011;58851;42.984;20.336;2022-11-15T06:35:48;84.50;;;56.13;;
55330;SDS011;58851;42.984;20.336;2022-11-15T06:38:13;91.78;;;63.47;;
55330;SDS011;58851;42.984;20.336;2022-11-15T06:40:39;94.47;;;67.93;;
55330;SDS011;58851;42.984;20.336;2022-11-15T06:43:05;98.88;;;73.15;;
55330;SDS011;58851;42.984;20.336;2022-11-15T06:45:32;99.25;;;71.90;;
55330;SDS011;58851;42.984;20.336;2022-11-15T06:47:58;97.85;;;74.40;;
55330;SDS011;58851;42.984;20.336;2022-11-15T06:50:24;114.70;;;81.53;;
55330;SDS011;58851;42.984;20.336;2022-11-15T06:52:50;103.18;;;72.40;;
55330;SDS011;58851;42.984;20.336;2022-11-15T06:55:16;88.53;;;62.65;;
55330;SDS011;58851;42.984;20.336;2022-11-15T06:57:48;104.82;;;79.97;;
55330;SDS011;58851;42.984;20.336;2022-11-15T07:00:15;104.43;;;83.13;;
55330;SDS011;58851;42.984;20.336;2022-11-15T07:02:42;102.38;;;79.40;;
55330;SDS011;58851;42.984;20.336;2022-11-15T07:05:08;102.45;;;82.45;;
55330;SDS011;58851;42.984;20.336;2022-11-15T07:07:34;73.47;;;57.58;;
55330;SDS011;58851;42.984;20.336;2022-11-15T07:10:00;74.03;;;54.85;;
55330;SDS011;58851;42.984;20.336;2022-11-15T07:12:25;73.68;;;56.55;;
55330;SDS011;58851;42.984;20.336;2022-11-15T07:14:51;64.38;;;47.72;;
55330;SDS011;58851;42.984;20.336;2022-11-15T07:17:17;82.82;;;60.00;;
55330;SDS011;58851;42.984;20.336;2022-11-15T07:19:43;79.93;;;57.97;;
55330;SDS011;58851;42.984;20.336;2022-11-15T07:22:09;78.82;;;60.70;;
55330;SDS011;58851;42.984;20.336;2022-11-15T07:24:34;82.38;;;63.47;;
55330;SDS011;58851;42.984;20.336;2022-11-15T07:27:00;75.57;;;57.28;;
55330;SDS011;58851;42.984;20.336;2022-11-15T07:29:26;89.68;;;62.47;;
55330;SDS011;58851;42.984;20.336;2022-11-15T07:31:52;83.97;;;60.13;;
55330;SDS011;58851;42.984;20.336;2022-11-15T07:34:18;76.40;;;55.60;;
55330;SDS011;58851;42.984;20.336;2022-11-15T07:36:44;78.53;;;56.00;;
55330;SDS011;58851;42.984;20.336;2022-11-15T07:39:10;85.40;;;60.75;;
55330;SDS011;58851;42.984;20.336;2022-11-15T07:41:37;83.63;;;58.92;;
55330;SDS011;58851;42.984;20.336;2022-11-15T07:44:03;122.85;;;99.75;;
55330;SDS011;58851;42.984;20.336;2022-11-15T07:46:29;99.13;;;70.82;;
55330;SDS011;58851;42.984;20.336;2022-11-15T07:48:56;78.03;;;57.72;;
55330;SDS011;58851;42.984;20.336;2022-11-15T07:51:22;58.20;;;41.63;;
55330;SDS011;58851;42.984;20.336;2022-11-15T07:53:48;67.68;;;48.42;;
55330;SDS011;58851;42.984;20.336;2022-11-15T07:56:14;68.65;;;51.20;;
55330;SDS011;58851;42.984;20.336;2022-11-15T07:58:40;64.75;;;47.58;;
55330;SDS011;58851;42.984;20.336;2022-11-15T08:01:06;65.40;;;46.00;;
55330;SDS011;58851;42.984;20.336;2022-11-15T08:03:34;60.88;;;45.00;;
55330;SDS011;58851;42.984;20.336;2022-11-15T08:06:00;62.67;;;46.88;;
55330;SDS011;58851;42.984;20.336;2022-11-15T08:08:27;63.20;;;45.22;;
55330;SDS011;58851;42.984;20.336;2022-11-15T08:10:52;67.38;;;49.95;;
55330;SDS011;58851;42.984;20.336;2022-11-15T08:13:19;61.33;;;44.38;;
55330;SDS011;58851;42.984;20.336;2022-11-15T08:15:46;59.63;;;41.38;;
55330;SDS011;58851;42.984;20.336;2022-11-15T08:18:12;67.78;;;46.72;;
55330;SDS011;58851;42.984;20.336;2022-11-15T08:20:40;86.80;;;60.10;;
55330;SDS011;58851;42.984;20.336;2022-11-15T08:23:06;95.68;;;60.65;;
55330;SDS011;58851;42.984;20.336;2022-11-15T08:25:33;58.35;;;40.38;;
55330;SDS011;58851;42.984;20.336;2022-11-15T08:28:02;47.88;;;36.13;;
55330;SDS011;58851;42.984;20.336;2022-11-15T08:30:29;45.70;;;33.22;;
55330;SDS011;58851;42.984;20.336;2022-11-15T08:32:59;43.92;;;29.67;;
55330;SDS011;58851;42.984;20.336;2022-11-15T08:35:25;46.60;;;35.80;;
55330;SDS011;58851;42.984;20.336;2022-11-15T08:37:52;42.85;;;26.92;;
55330;SDS011;58851;42.984;20.336;2022-11-15T08:40:18;40.65;;;27.30;;
55330;SDS011;58851;42.984;20.336;2022-11-15T08:42:48;35.78;;;25.63;;
55330;SDS011;58851;42.984;20.336;2022-11-15T08:45:13;36.83;;;26.80;;
55330;SDS011;58851;42.984;20.336;2022-11-15T08:47:40;41.95;;;28.33;;
55330;SDS011;58851;42.984;20.336;2022-11-15T08:50:06;32.08;;;23.23;;
55330;SDS011;58851;42.984;20.336;2022-11-15T08:52:33;31.30;;;25.27;;
55330;SDS011;58851;42.984;20.336;2022-11-15T08:54:58;32.30;;;25.65;;
55330;SDS011;58851;42.984;20.336;2022-11-15T08:57:24;32.05;;;24.25;;
55330;SDS011;58851;42.984;20.336;2022-11-15T08:59:53;26.50;;;21.88;;
55330;SDS011;58851;42.984;20.336;2022-11-15T09:02:18;33.28;;;23.20;;
55330;SDS011;58851;42.984;20.336;2022-11-15T09:04:44;31.23;;;20.85;;
55330;SDS011;58851;42.984;20.336;2022-11-15T09:07:10;28.85;;;21.65;;
55330;SDS011;58851;42.984;20.336;2022-11-15T09:09:37;27.35;;;21.27;;
55330;SDS011;58851;42.984;20.336;2022-11-15T09:12:03;21.42;;;16.88;;
55330;SDS011;58851;42.984;20.336;2022-11-15T09:14:30;27.20;;;17.70;;
55330;SDS011;58851;42.984;20.336;2022-11-15T09:16:55;20.27;;;16.38;;
55330;SDS011;58851;42.984;20.336;2022-11-15T09:19:22;24.20;;;19.30;;
55330;SDS011;58851;42.984;20.336;2022-11-15T09:21:47;19.88;;;14.32;;
55330;SDS011;58851;42.984;20.336;2022-11-15T09:24:13;13.27;;;10.52;;
55330;SDS011;58851;42.984;20.336;2022-11-15T09:26:39;17.33;;;12.15;;
55330;SDS011;58851;42.984;20.336;2022-11-15T09:29:05;18.10;;;12.40;;
55330;SDS011;58851;42.984;20.336;2022-11-15T09:31:31;20.58;;;14.32;;
55330;SDS011;58851;42.984;20.336;2022-11-15T09:33:56;16.60;;;12.23;;
55330;SDS011;58851;42.984;20.336;2022-11-15T09:36:22;19.60;;;12.43;;
55330;SDS011;58851;42.984;20.336;2022-11-15T09:38:48;24.85;;;20.08;;
55330;SDS011;58851;42.984;20.336;2022-11-15T09:49:18;21.95;;;12.13;;
55330;SDS011;58851;42.984;20.336;2022-11-15T09:51:45;12.32;;;10.13;;
55330;SDS011;58851;42.984;20.336;2022-11-15T09:56:46;30.77;;;23.27;;
55330;SDS011;58851;42.984;20.336;2022-11-15T10:05:01;127.05;;;108.78;;
55330;SDS011;58851;42.984;20.336;2022-11-15T10:10:23;21.42;;;15.88;;
55330;SDS011;58851;42.984;20.336;2022-11-15T10:13:00;22.60;;;14.48;;
55330;SDS011;58851;42.984;20.336;2022-11-15T10:15:25;21.33;;;15.82;;
55330;SDS011;58851;42.984;20.336;2022-11-15T10:18:08;25.60;;;18.35;;
55330;SDS011;58851;42.984;20.336;2022-11-15T10:23:23;20.17;;;16.35;;
55330;SDS011;58851;42.984;20.336;2022-11-15T10:25:58;21.35;;;13.68;;
55330;SDS011;58851;42.984;20.336;2022-11-15T10:28:28;18.98;;;12.15;;
55330;SDS011;58851;42.984;20.336;2022-11-15T10:30:56;29.70;;;17.67;;
55330;SDS011;58851;42.984;20.336;2022-11-15T10:33:25;19.23;;;13.30;;
55330;SDS011;58851;42.984;20.336;2022-11-15T10:43:42;13.77;;;10.63;;
55330;SDS011;58851;42.984;20.336;2022-11-15T10:46:19;20.52;;;16.27;;
55330;SDS011;58851;42.984;20.336;2022-11-15T10:48:47;19.25;;;14.65;;
55330;SDS011;58851;42.984;20.336;2022-11-15T10:51:20;20.13;;;14.80;;
55330;SDS011;58851;42.984;20.336;2022-11-15T10:53:57;21.38;;;13.35;;
55330;SDS011;58851;42.984;20.336;2022-11-15T10:56:26;16.58;;;12.45;;
55330;SDS011;58851;42.984;20.336;2022-11-15T10:58:56;19.33;;;15.50;;
55330;SDS011;58851;42.984;20.336;2022-11-15T11:01:23;22.17;;;15.43;;
55330;SDS011;58851;42.984;20.336;2022-11-15T11:06:31;19.67;;;14.07;;
55330;SDS011;58851;42.984;20.336;2022-11-15T11:12:09;24.33;;;18.55;;
55330;SDS011;58851;42.984;20.336;2022-11-15T11:14:37;17.65;;;13.00;;
55330;SDS011;58851;42.984;20.336;2022-11-15T11:17:20;15.27;;;12.20;;
55330;SDS011;58851;42.984;20.336;2022-11-15T11:25:38;11.63;;;8.52;;
55330;SDS011;58851;42.984;20.336;2022-11-15T11:31:07;22.13;;;18.50;;
55330;SDS011;58851;42.984;20.336;2022-11-15T11:36:27;21.65;;;13.85;;
55330;SDS011;58851;42.984;20.336;2022-11-15T11:44:33;15.07;;;10.75;;
55330;SDS011;58851;42.984;20.336;2022-11-15T11:47:24;13.02;;;10.50;;
55330;SDS011;58851;42.984;20.336;2022-11-15T11:50:10;22.45;;;12.68;;
55330;SDS011;58851;42.984;20.336;2022-11-15T11:52:55;13.03;;;9.07;;
55330;SDS011;58851;42.984;20.336;2022-11-15T11:55:47;20.27;;;13.98;;
55330;SDS011;58851;42.984;20.336;2022-11-15T12:03:28;24.70;;;15.93;;
55330;SDS011;58851;42.984;20.336;2022-11-15T12:14:42;27.33;;;15.88;;
55330;SDS011;58851;42.984;20.336;2022-11-15T12:17:19;31.30;;;15.63;;
55330;SDS011;58851;42.984;20.336;2022-11-15T12:19:51;21.77;;;13.13;;
55330;SDS011;58851;42.984;20.336;2022-11-15T12:22:35;27.83;;;20.02;;
55330;SDS011;58851;42.984;20.336;2022-11-15T12:27:58;27.85;;;20.02;;
55330;SDS011;58851;42.984;20.336;2022-11-15T12:36:05;42.75;;;27.55;;
55330;SDS011;58851;42.984;20.336;2022-11-15T12:38:55;36.50;;;24.13;;
55330;SDS011;58851;42.984;20.336;2022-11-15T12:41:25;28.10;;;21.38;;
55330;SDS011;58851;42.984;20.336;2022-11-15T12:43:53;36.97;;;23.92;;
55330;SDS011;58851;42.984;20.336;2022-11-15T13:02:42;36.38;;;25.83;;
55330;SDS011;58851;42.984;20.336;2022-11-15T13:17:52;34.80;;;22.98;;
55330;SDS011;58851;42.984;20.336;2022-11-15T13:20:29;52.40;;;31.33;;
55330;SDS011;58851;42.984;20.336;2022-11-15T13:23:10;75.93;;;43.35;;
55330;SDS011;58851;42.984;20.336;2022-11-15T13:36:03;95.13;;;68.22;;
55330;SDS011;58851;42.984;20.336;2022-11-15T13:38:38;75.05;;;50.35;;
55330;SDS011;58851;42.984;20.336;2022-11-15T13:41:19;73.82;;;51.80;;
55330;SDS011;58851;42.984;20.336;2022-11-15T13:43:46;62.03;;;41.72;;
55330;SDS011;58851;42.984;20.336;2022-11-15T13:46:16;32.65;;;19.88;;
55330;SDS011;58851;42.984;20.336;2022-11-15T13:48:43;31.17;;;17.45;;
55330;SDS011;58851;42.984;20.336;2022-11-15T13:53:51;29.10;;;12.13;;
55330;SDS011;58851;42.984;20.336;2022-11-15T13:56:42;22.45;;;14.30;;
55330;SDS011;58851;42.984;20.336;2022-11-15T13:59:25;28.33;;;19.83;;
55330;SDS011;58851;42.984;20.336;2022-11-15T14:04:48;25.02;;;14.40;;
55330;SDS011;58851;42.984;20.336;2022-11-15T14:07:21;16.70;;;12.02;;
55330;SDS011;58851;42.984;20.336;2022-11-15T14:09:49;15.57;;;9.93;;
55330;SDS011;58851;42.984;20.336;2022-11-15T14:12:26;25.77;;;15.57;;
55330;SDS011;58851;42.984;20.336;2022-11-15T14:15:00;28.38;;;17.17;;
55330;SDS011;58851;42.984;20.336;2022-11-15T14:17:44;21.80;;;14.93;;
55330;SDS011;58851;42.984;20.336;2022-11-15T14:20:24;24.17;;;14.85;;
55330;SDS011;58851;42.984;20.336;2022-11-15T14:22:56;21.50;;;14.70;;
55330;SDS011;58851;42.984;20.336;2022-11-15T14:25:27;37.15;;;24.98;;
55330;SDS011;58851;42.984;20.336;2022-11-15T14:28:14;33.78;;;21.83;;
55330;SDS011;58851;42.984;20.336;2022-11-15T14:33:23;17.52;;;13.15;;
55330;SDS011;58851;42.984;20.336;2022-11-15T14:35:57;15.98;;;10.88;;
55330;SDS011;58851;42.984;20.336;2022-11-15T14:38:27;32.28;;;21.92;;
55330;SDS011;58851;42.984;20.336;2022-11-15T14:40:53;37.72;;;27.17;;
55330;SDS011;58851;42.984;20.336;2022-11-15T14:43:21;64.25;;;38.08;;
55330;SDS011;58851;42.984;20.336;2022-11-15T14:45:47;26.90;;;18.67;;
55330;SDS011;58851;42.984;20.336;2022-11-15T14:48:14;56.05;;;36.88;;
55330;SDS011;58851;42.984;20.336;2022-11-15T14:50:40;33.33;;;24.17;;
55330;SDS011;58851;42.984;20.336;2022-11-15T14:53:06;36.85;;;28.35;;
55330;SDS011;58851;42.984;20.336;2022-11-15T14:55:36;33.78;;;24.13;;
55330;SDS011;58851;42.984;20.336;2022-11-15T14:58:03;32.08;;;21.10;;
55330;SDS011;58851;42.984;20.336;2022-11-15T15:00:30;23.13;;;16.58;;
55330;SDS011;58851;42.984;20.336;2022-11-15T15:02:57;28.45;;;16.88;;
55330;SDS011;58851;42.984;20.336;2022-11-15T15:08:05;38.67;;;18.67;;
55330;SDS011;58851;42.984;20.336;2022-11-15T15:10:42;34.60;;;23.50;;
55330;SDS011;58851;42.984;20.336;2022-11-15T15:15:42;21.20;;;14.85;;
55330;SDS011;58851;42.984;20.336;2022-11-15T15:18:09;22.50;;;20.05;;
55330;SDS011;58851;42.984;20.336;2022-11-15T15:20:36;18.98;;;13.60;;
55330;SDS011;58851;42.984;20.336;2022-11-15T15:23:04;21.88;;;11.60;;
55330;SDS011;58851;42.984;20.336;2022-11-15T15:25:34;25.23;;;16.20;;
55330;SDS011;58851;42.984;20.336;2022-11-15T15:28:00;39.72;;;26.15;;
55330;SDS011;58851;42.984;20.336;2022-11-15T15:30:27;51.28;;;30.98;;
55330;SDS011;58851;42.984;20.336;2022-11-15T15:32:55;35.75;;;23.65;;
55330;SDS011;58851;42.984;20.336;2022-11-15T15:35:21;34.95;;;24.85;;
55330;SDS011;58851;42.984;20.336;2022-11-15T15:37:47;23.17;;;17.13;;
55330;SDS011;58851;42.984;20.336;2022-11-15T15:40:18;47.25;;;25.70;;
55330;SDS011;58851;42.984;20.336;2022-11-15T15:42:46;75.95;;;46.30;;
55330;SDS011;58851;42.984;20.336;2022-11-15T15:45:13;45.95;;;32.65;;
55330;SDS011;58851;42.984;20.336;2022-11-15T15:47:40;61.80;;;46.72;;
55330;SDS011;58851;42.984;20.336;2022-11-15T15:52:41;78.90;;;49.97;;
55330;SDS011;58851;42.984;20.336;2022-11-15T15:55:07;58.45;;;42.72;;
55330;SDS011;58851;42.984;20.336;2022-11-15T15:57:33;69.47;;;51.95;;
55330;SDS011;58851;42.984;20.336;2022-11-15T15:59:59;101.05;;;70.13;;
55330;SDS011;58851;42.984;20.336;2022-11-15T16:02:25;72.22;;;54.22;;
55330;SDS011;58851;42.984;20.336;2022-11-15T16:04:51;87.75;;;61.58;;
55330;SDS011;58851;42.984;20.336;2022-11-15T16:07:17;76.60;;;55.80;;
55330;SDS011;58851;42.984;20.336;2022-11-15T16:09:47;64.53;;;47.58;;
55330;SDS011;58851;42.984;20.336;2022-11-15T16:12:32;64.90;;;50.45;;
55330;SDS011;58851;42.984;20.336;2022-11-15T16:14:59;78.53;;;56.97;;
55330;SDS011;58851;42.984;20.336;2022-11-15T16:17:27;71.82;;;54.03;;
55330;SDS011;58851;42.984;20.336;2022-11-15T16:19:57;85.78;;;57.00;;
55330;SDS011;58851;42.984;20.336;2022-11-15T16:22:23;45.90;;;33.28;;
55330;SDS011;58851;42.984;20.336;2022-11-15T16:24:49;47.05;;;34.95;;
55330;SDS011;58851;42.984;20.336;2022-11-15T16:27:15;47.15;;;35.55;;
55330;SDS011;58851;42.984;20.336;2022-11-15T16:29:43;85.32;;;64.05;;
55330;SDS011;58851;42.984;20.336;2022-11-15T16:32:10;99.95;;;65.55;;
55330;SDS011;58851;42.984;20.336;2022-11-15T16:34:36;76.80;;;55.17;;
55330;SDS011;58851;42.984;20.336;2022-11-15T16:37:02;93.55;;;62.30;;
55330;SDS011;58851;42.984;20.336;2022-11-15T16:39:28;170.73;;;107.15;;
55330;SDS011;58851;42.984;20.336;2022-11-15T16:41:58;161.95;;;112.25;;
55330;SDS011;58851;42.984;20.336;2022-11-15T16:44:24;123.85;;;85.95;;
55330;SDS011;58851;42.984;20.336;2022-11-15T16:46:51;128.93;;;94.93;;
55330;SDS011;58851;42.984;20.336;2022-11-15T16:49:17;120.90;;;93.78;;